Time;durP1;ratioP1;P1;durP2;ratioP2;P2;SDS_P1;SDS_P2;PMS_P1;PMS_P2;Temp;Humidity;BMP_temperature;BMP_pressure;BME280_temperature;BME280_humidity;BME280_pressure;Samples;Min_cycle;Max_cycle;Signal;HPM_P1;HPM_P2
2022/12/04 00:00:45;;;;;;;35.60;17.40;;;-0.20;99.90;;;;;;5111365;28;20442;-79
2022/12/04 00:03:32;;;;;;;41.67;18.48;;;-0.30;99.90;;;;;;5111027;28;20051;-82
2022/12/04 00:06:19;;;;;;;42.25;17.88;;;-0.30;99.90;;;;;;5093170;28;20055;-77
2022/12/04 00:09:05;;;;;;;37.05;17.38;;;-0.30;99.90;;;;;;5111615;28;20078;-82
2022/12/04 00:11:52;;;;;;;41.92;19.15;;;-0.30;99.90;;;;;;5115680;28;20437;-83
2022/12/04 00:14:38;;;;;;;39.25;17.95;;;-0.30;99.90;;;;;;5096607;28;20059;-83
2022/12/04 00:17:24;;;;;;;38.72;19.33;;;-0.20;99.90;;;;;;5092191;28;20487;-82
2022/12/04 00:20:11;;;;;;;44.67;18.33;;;-0.20;99.90;;;;;;5091355;28;20047;-83
2022/12/04 00:22:57;;;;;;;44.28;18.95;;;-0.20;99.90;;;;;;5097011;28;20052;-82
2022/12/04 00:25:47;;;;;;;43.10;20.25;;;-0.10;99.90;;;;;;5098683;28;20081;-81
2022/12/04 00:28:34;;;;;;;41.70;20.00;;;-0.10;99.90;;;;;;5115075;28;20070;-79
2022/12/04 00:31:23;;;;;;;37.15;18.52;;;-0.10;99.90;;;;;;5112299;28;20040;-81
2022/12/04 00:34:09;;;;;;;40.55;18.15;;;0.00;99.90;;;;;;5092225;28;20192;-83
2022/12/04 00:36:56;;;;;;;44.15;18.33;;;0.00;99.90;;;;;;5079034;28;20070;-81
2022/12/04 00:39:42;;;;;;;42.40;18.88;;;0.10;99.90;;;;;;5079484;28;20048;-80
2022/12/04 00:42:28;;;;;;;40.83;18.38;;;0.20;99.90;;;;;;5094661;28;20082;-83
2022/12/04 00:45:14;;;;;;;41.40;19.05;;;0.20;99.90;;;;;;5112379;28;20406;-81
2022/12/04 00:48:00;;;;;;;45.70;19.17;;;0.30;99.90;;;;;;5091648;28;20054;-84
2022/12/04 00:50:46;;;;;;;52.85;21.52;;;0.30;99.90;;;;;;5109567;28;20077;-84
2022/12/04 00:53:33;;;;;;;39.80;18.77;;;0.40;99.90;;;;;;5111161;28;20055;-85
2022/12/04 00:56:24;;;;;;;47.10;19.20;;;0.50;99.90;;;;;;5110396;28;20104;-82
2022/12/04 00:59:12;;;;;;;42.42;20.38;;;0.50;99.90;;;;;;5110109;28;20055;-80
2022/12/04 01:01:58;;;;;;;45.78;20.17;;;0.60;99.90;;;;;;5112128;28;20052;-85
2022/12/04 01:04:44;;;;;;;52.17;20.25;;;0.60;99.90;;;;;;5093557;28;20511;-82
2022/12/04 01:07:31;;;;;;;38.40;17.83;;;0.60;99.90;;;;;;5095313;28;20495;-80
2022/12/04 01:10:17;;;;;;;38.10;18.75;;;0.70;99.90;;;;;;5113662;28;20372;-80
2022/12/04 01:13:03;;;;;;;42.00;18.33;;;0.70;99.90;;;;;;5112289;28;20040;-80
2022/12/04 01:15:49;;;;;;;36.17;18.35;;;0.80;99.90;;;;;;5082468;28;20086;-85
2022/12/04 01:18:36;;;;;;;36.25;17.38;;;0.80;99.90;;;;;;5114873;28;20052;-77
2022/12/04 01:21:22;;;;;;;42.78;18.02;;;0.80;99.90;;;;;;5096183;28;20177;-86
2022/12/04 01:24:08;;;;;;;40.88;18.27;;;0.90;99.90;;;;;;5094777;28;20060;-85
2022/12/04 01:26:55;;;;;;;39.85;18.00;;;0.90;99.90;;;;;;5114349;28;20096;-81
2022/12/04 01:29:41;;;;;;;40.90;18.30;;;0.90;99.90;;;;;;5112932;28;20058;-79
2022/12/04 01:32:27;;;;;;;38.60;19.02;;;0.90;99.90;;;;;;5114255;28;20402;-82
2022/12/04 01:35:14;;;;;;;37.42;18.05;;;0.90;99.90;;;;;;5100695;28;20046;-84
2022/12/04 01:38:00;;;;;;;38.50;17.40;;;0.90;99.90;;;;;;5113930;28;20188;-83
2022/12/04 01:40:46;;;;;;;43.20;18.52;;;0.90;99.90;;;;;;5094977;28;20506;-85
2022/12/04 01:43:35;;;;;;;39.05;17.40;;;0.90;99.90;;;;;;5112693;28;20052;-81
2022/12/04 01:46:21;;;;;;;42.75;17.92;;;1.00;99.90;;;;;;5098797;28;20051;-83
2022/12/04 01:49:18;;;;;;;40.72;18.70;;;1.00;99.90;;;;;;5113953;28;20044;-84
2022/12/04 01:52:14;;;;;;;42.45;17.92;;;1.00;99.90;;;;;;5116983;28;20403;-85
2022/12/04 01:55:01;;;;;;;36.80;17.88;;;1.00;99.90;;;;;;5095129;28;20138;-81
2022/12/04 01:57:47;;;;;;;38.78;18.25;;;0.90;99.90;;;;;;5112463;28;20044;-83
2022/12/04 02:00:33;;;;;;;38.42;17.50;;;1.00;99.90;;;;;;5097952;28;20055;-83
2022/12/04 02:03:19;;;;;;;45.13;19.13;;;1.00;99.90;;;;;;5112251;28;20081;-84
2022/12/04 02:06:06;;;;;;;36.03;16.13;;;1.00;99.90;;;;;;5095222;28;20065;-84
2022/12/04 02:08:52;;;;;;;38.47;17.20;;;1.00;99.90;;;;;;5098515;28;20051;-81
2022/12/04 02:12:06;;;;;;;38.25;18.38;;;1.00;99.90;;;;;;5094708;28;20054;-78
2022/12/04 02:15:04;;;;;;;43.15;18.50;;;1.00;99.90;;;;;;5112958;28;20044;-77
2022/12/04 02:17:59;;;;;;;42.17;19.48;;;1.00;99.90;;;;;;5098299;28;20444;-77
2022/12/04 02:20:58;;;;;;;42.95;18.40;;;1.00;99.90;;;;;;5112056;28;20048;-79
2022/12/04 02:24:00;;;;;;;44.95;19.95;;;1.00;99.90;;;;;;5095348;28;20058;-84
2022/12/04 02:27:00;;;;;;;37.83;18.52;;;1.00;99.90;;;;;;5095237;28;20064;-78
2022/12/04 02:30:04;;;;;;;40.13;17.88;;;1.00;99.90;;;;;;5074146;28;20445;-84
2022/12/04 02:33:06;;;;;;;41.50;18.20;;;1.00;99.90;;;;;;5092217;28;20048;-84
2022/12/04 02:36:06;;;;;;;39.95;17.35;;;0.90;99.90;;;;;;5073355;28;20126;-83
2022/12/04 02:39:11;;;;;;;36.45;17.27;;;0.80;99.90;;;;;;5072797;28;20087;-84
2022/12/04 02:42:15;;;;;;;40.60;16.83;;;0.70;99.90;;;;;;5093851;28;20087;-82
2022/12/04 02:45:07;;;;;;;36.78;16.90;;;0.70;99.90;;;;;;5090957;28;20047;-84
2022/12/04 02:47:54;;;;;;;38.05;17.08;;;0.60;99.90;;;;;;5091498;28;20050;-83
2022/12/04 02:50:40;;;;;;;40.15;17.00;;;0.50;99.90;;;;;;5090268;28;20044;-81
2022/12/04 02:53:32;;;;;;;38.08;17.58;;;0.50;99.90;;;;;;5111397;28;20048;-78
2022/12/04 02:56:24;;;;;;;39.42;17.65;;;0.50;99.90;;;;;;5092821;28;20055;-80
2022/12/04 02:59:35;;;;;;;41.42;18.52;;;0.60;99.90;;;;;;5093836;28;20134;-83
2022/12/04 03:02:36;;;;;;;41.53;18.20;;;0.60;99.90;;;;;;5093975;28;20085;-80
2022/12/04 03:05:35;;;;;;;39.03;18.50;;;0.60;99.90;;;;;;5093359;28;20491;-79
2022/12/04 03:08:37;;;;;;;42.15;17.90;;;0.70;99.90;;;;;;5079920;28;20055;-84
2022/12/04 03:11:27;;;;;;;38.13;19.15;;;0.70;99.90;;;;;;5092460;28;20059;-76
2022/12/04 03:14:20;;;;;;;43.58;18.73;;;0.70;99.90;;;;;;5093591;28;20132;-81
2022/12/04 03:17:17;;;;;;;43.22;18.13;;;0.70;99.90;;;;;;5092897;28;20450;-85
2022/12/04 03:20:09;;;;;;;44.03;18.67;;;0.70;99.90;;;;;;5093657;28;20063;-80
2022/12/04 03:23:02;;;;;;;39.22;18.73;;;0.80;99.90;;;;;;5091724;28;20534;-85
2022/12/04 03:26:08;;;;;;;38.10;17.98;;;0.80;99.90;;;;;;5093105;28;20445;-81
2022/12/04 03:29:06;;;;;;;46.40;19.77;;;0.80;99.90;;;;;;5111074;28;20070;-82
2022/12/04 03:32:00;;;;;;;44.70;19.40;;;0.80;99.90;;;;;;5093287;28;20048;-86
2022/12/04 03:35:01;;;;;;;43.28;19.98;;;0.80;99.90;;;;;;5095067;28;20456;-79
2022/12/04 03:37:55;;;;;;;50.22;20.98;;;0.80;99.90;;;;;;5092671;28;20043;-79
2022/12/04 03:41:03;;;;;;;42.55;20.50;;;0.80;99.90;;;;;;5096067;28;20054;-85
2022/12/04 03:43:58;;;;;;;49.38;22.45;;;0.90;99.90;;;;;;5091787;28;20058;-77
2022/12/04 03:47:03;;;;;;;46.10;19.88;;;0.80;99.90;;;;;;5092652;28;20093;-84
2022/12/04 03:50:01;;;;;;;47.47;21.08;;;0.80;99.90;;;;;;5112580;28;20048;-77
2022/12/04 03:53:03;;;;;;;44.03;22.30;;;0.80;99.90;;;;;;5110871;28;20054;-82
2022/12/04 03:56:18;;;;;;;48.45;23.15;;;0.80;99.90;;;;;;5093028;28;20047;-78
2022/12/04 03:59:16;;;;;;;48.88;21.42;;;0.80;99.90;;;;;;5080492;28;20058;-81
2022/12/04 04:02:07;;;;;;;49.08;23.13;;;0.80;99.90;;;;;;5094601;28;20047;-80
2022/12/04 04:04:55;;;;;;;48.60;21.48;;;0.80;99.90;;;;;;5092595;28;20531;-76
2022/12/04 04:07:50;;;;;;;48.13;21.60;;;0.80;99.90;;;;;;5093222;28;20083;-84
2022/12/04 04:10:36;;;;;;;46.20;22.00;;;0.80;99.90;;;;;;5093466;28;20563;-81
2022/12/04 04:26:02;;;;;;;53.50;23.35;;;0.80;99.90;;;;;;5093358;28;20059;-78
2022/12/04 04:28:48;;;;;;;51.28;23.73;;;0.70;99.90;;;;;;5111552;28;20047;-84
2022/12/04 04:31:45;;;;;;;50.33;23.75;;;0.70;99.90;;;;;;5118100;28;20079;-80
2022/12/04 04:34:53;;;;;;;48.72;21.40;;;0.70;99.90;;;;;;5092268;28;20539;-79
2022/12/04 04:37:44;;;;;;;49.85;21.60;;;0.70;99.90;;;;;;5113725;28;20054;-83
2022/12/04 04:40:39;;;;;;;48.28;23.20;;;0.70;99.90;;;;;;5117784;28;20043;-83
2022/12/04 04:43:35;;;;;;;48.53;22.10;;;0.70;99.90;;;;;;5118446;28;20268;-84
2022/12/04 04:46:32;;;;;;;57.08;25.33;;;0.70;99.90;;;;;;5115425;28;20046;-77
2022/12/04 04:49:21;;;;;;;52.22;24.38;;;0.70;99.90;;;;;;5114691;28;20054;-77
2022/12/04 04:52:08;;;;;;;49.72;23.55;;;0.70;99.90;;;;;;5095925;28;20051;-82
2022/12/04 04:54:55;;;;;;;53.38;24.23;;;0.70;99.90;;;;;;5107923;28;20051;-85
2022/12/04 04:57:42;;;;;;;52.63;23.85;;;0.70;99.90;;;;;;5123390;28;20099;-78
2022/12/04 05:00:28;;;;;;;51.45;24.90;;;0.70;99.90;;;;;;5126539;28;20247;-82
2022/12/04 05:03:14;;;;;;;52.53;24.90;;;0.70;99.90;;;;;;5125642;28;20071;-77
2022/12/04 05:06:01;;;;;;;55.50;24.83;;;0.70;99.90;;;;;;5109697;28;20058;-83
2022/12/04 05:08:48;;;;;;;58.72;26.38;;;0.70;99.90;;;;;;5126261;28;20054;-82
2022/12/04 05:11:34;;;;;;;54.55;26.00;;;0.70;99.90;;;;;;5088431;28;20079;-78
2022/12/04 05:14:20;;;;;;;57.05;26.10;;;0.60;99.90;;;;;;5099777;28;20043;-78
2022/12/04 05:17:06;;;;;;;54.03;27.38;;;0.60;99.90;;;;;;5085088;28;20047;-77
2022/12/04 05:19:52;;;;;;;54.05;25.55;;;0.70;99.90;;;;;;5118320;28;20135;-80
2022/12/04 05:22:39;;;;;;;61.28;27.75;;;0.60;99.90;;;;;;5098363;28;20101;-78
2022/12/04 05:25:25;;;;;;;59.95;26.00;;;0.70;99.90;;;;;;5098501;28;20079;-76
2022/12/04 05:28:11;;;;;;;53.40;25.95;;;0.60;99.90;;;;;;5096714;28;20070;-79
2022/12/04 05:31:00;;;;;;;51.58;25.05;;;0.70;99.90;;;;;;5096300;28;20134;-78
2022/12/04 05:33:46;;;;;;;48.05;24.27;;;0.60;99.90;;;;;;5098773;28;20056;-77
2022/12/04 05:36:32;;;;;;;59.45;27.13;;;0.70;99.90;;;;;;5097597;28;20054;-84
2022/12/04 05:39:18;;;;;;;55.30;27.67;;;0.60;99.90;;;;;;5095561;28;20059;-78
2022/12/04 05:42:05;;;;;;;56.67;25.58;;;0.60;99.90;;;;;;5096473;28;20048;-81
2022/12/04 05:44:51;;;;;;;55.67;27.60;;;0.60;99.90;;;;;;5114909;28;20097;-79
2022/12/04 05:47:42;;;;;;;55.72;25.30;;;0.70;99.90;;;;;;5113542;28;20051;-78
2022/12/04 05:50:28;;;;;;;52.45;26.50;;;0.70;99.90;;;;;;5111764;28;20043;-76
2022/12/04 05:53:14;;;;;;;60.67;25.42;;;0.70;99.90;;;;;;5095775;28;20130;-82
2022/12/04 05:56:02;;;;;;;54.38;26.67;;;0.70;99.90;;;;;;5094334;28;20487;-77
2022/12/04 05:58:49;;;;;;;58.00;27.30;;;0.70;99.90;;;;;;5113955;28;20439;-83
2022/12/04 06:01:35;;;;;;;60.47;28.55;;;0.70;99.90;;;;;;5099486;28;20059;-78
2022/12/04 06:04:21;;;;;;;53.25;25.45;;;0.70;99.90;;;;;;5094739;28;20040;-79
2022/12/04 06:07:09;;;;;;;56.13;25.58;;;0.70;99.90;;;;;;5094420;28;20490;-78
2022/12/04 06:09:55;;;;;;;54.90;27.15;;;0.70;99.90;;;;;;5093197;28;20043;-83
2022/12/04 06:12:41;;;;;;;59.03;27.35;;;0.70;99.90;;;;;;5112376;28;20086;-78
2022/12/04 06:15:27;;;;;;;56.85;26.13;;;0.70;99.90;;;;;;5085414;28;20089;-78
2022/12/04 06:18:14;;;;;;;57.08;25.70;;;0.80;99.90;;;;;;5112770;28;20495;-78
2022/12/04 06:21:00;;;;;;;61.30;28.50;;;0.70;99.90;;;;;;5112199;28;20046;-78
2022/12/04 06:23:46;;;;;;;59.92;27.33;;;0.80;99.90;;;;;;5092818;28;20091;-81
2022/12/04 06:26:33;;;;;;;57.17;27.45;;;0.80;99.90;;;;;;5094671;28;20057;-80
2022/12/04 06:29:19;;;;;;;60.25;25.98;;;0.80;99.90;;;;;;5081153;28;20047;-78
2022/12/04 06:32:05;;;;;;;59.90;27.70;;;0.80;99.90;;;;;;5097482;28;20047;-80
2022/12/04 06:34:53;;;;;;;52.60;26.27;;;0.80;99.90;;;;;;5095209;28;20051;-77
2022/12/04 06:37:39;;;;;;;59.47;26.50;;;0.80;99.90;;;;;;5079493;28;20594;-81
2022/12/04 06:40:25;;;;;;;55.60;25.35;;;0.80;99.90;;;;;;5111637;28;20055;-79
2022/12/04 06:43:11;;;;;;;54.05;26.25;;;0.80;99.90;;;;;;5111269;28;20419;-80
2022/12/04 06:46:12;;;;;;;56.85;26.60;;;0.90;99.90;;;;;;5098462;28;20138;-77
2022/12/04 06:49:00;;;;;;;56.45;27.30;;;0.90;99.90;;;;;;5093980;28;20048;-80
2022/12/04 06:51:46;;;;;;;58.28;25.75;;;0.90;99.90;;;;;;5095156;28;20083;-78
2022/12/04 06:54:32;;;;;;;52.05;24.83;;;0.90;99.90;;;;;;5097218;28;20059;-79
2022/12/04 06:57:19;;;;;;;52.28;24.67;;;0.90;99.90;;;;;;5093877;28;20483;-79
2022/12/04 07:00:06;;;;;;;54.28;23.80;;;1.00;99.90;;;;;;5112451;28;20046;-76
2022/12/04 07:02:52;;;;;;;55.65;26.35;;;1.00;99.90;;;;;;5093980;28;20650;-82
2022/12/04 07:05:38;;;;;;;50.67;23.67;;;1.00;99.90;;;;;;5095665;28;20048;-78
2022/12/04 07:08:24;;;;;;;48.78;23.98;;;1.00;99.90;;;;;;5093360;28;20135;-80
2022/12/04 07:11:12;;;;;;;52.70;25.13;;;1.00;99.90;;;;;;5111429;28;20079;-80
2022/12/04 07:13:58;;;;;;;46.75;22.38;;;1.10;99.90;;;;;;5111306;28;20518;-78
2022/12/04 07:16:44;;;;;;;51.22;23.05;;;1.10;99.90;;;;;;5092558;28;20040;-77
2022/12/04 07:19:31;;;;;;;44.10;21.70;;;1.10;99.90;;;;;;5093695;28;20048;-82
2022/12/04 07:22:17;;;;;;;51.08;23.15;;;1.10;99.90;;;;;;5091233;28;20139;-77
2022/12/04 07:25:04;;;;;;;46.80;22.30;;;1.20;99.90;;;;;;5090812;28;20405;-83
2022/12/04 07:27:51;;;;;;;47.88;21.77;;;1.20;99.90;;;;;;5071703;28;20149;-85
2022/12/04 07:30:37;;;;;;;47.65;22.40;;;1.20;99.90;;;;;;5073134;28;20059;-77
2022/12/04 07:33:23;;;;;;;49.05;22.65;;;1.30;99.90;;;;;;5091802;28;20044;-85
2022/12/04 07:36:13;;;;;;;43.17;21.20;;;1.30;99.90;;;;;;5095152;28;20126;-84
2022/12/04 07:38:59;;;;;;;47.03;21.98;;;1.40;99.90;;;;;;5074211;28;20051;-77
2022/12/04 07:41:45;;;;;;;44.42;21.55;;;1.40;99.90;;;;;;5090607;28;20040;-79
2022/12/04 07:44:32;;;;;;;43.97;21.92;;;1.50;99.90;;;;;;5073219;28;20075;-82
2022/12/04 07:47:18;;;;;;;46.10;22.20;;;1.50;99.90;;;;;;5090571;28;20180;-79
2022/12/04 07:50:05;;;;;;;42.25;21.02;;;1.60;99.90;;;;;;5090393;28;20462;-86
2022/12/04 07:52:52;;;;;;;47.78;22.55;;;1.60;99.90;;;;;;5076018;28;20050;-77
2022/12/04 07:55:41;;;;;;;46.97;21.65;;;1.60;99.90;;;;;;5090971;28;20055;-80
2022/12/04 07:58:32;;;;;;;52.80;24.38;;;1.70;99.90;;;;;;5091391;28;20079;-87
2022/12/04 08:01:20;;;;;;;42.97;22.38;;;1.70;99.90;;;;;;5090910;28;20138;-79
2022/12/04 08:04:08;;;;;;;47.25;22.02;;;1.70;99.90;;;;;;5071849;28;20059;-84
2022/12/04 08:06:54;;;;;;;48.60;21.45;;;1.80;99.90;;;;;;5075382;28;20039;-80
2022/12/04 08:09:41;;;;;;;49.38;23.25;;;1.80;99.90;;;;;;5074015;28;20135;-82
2022/12/04 08:12:27;;;;;;;53.38;24.17;;;1.80;99.90;;;;;;5090542;28;20054;-79
2022/12/04 08:15:13;;;;;;;48.75;23.33;;;1.80;99.90;;;;;;5071977;28;20052;-82
2022/12/04 08:17:59;;;;;;;47.30;22.92;;;1.80;99.90;;;;;;5091964;28;20460;-83
2022/12/04 08:20:45;;;;;;;42.53;22.58;;;1.80;99.90;;;;;;5091676;28;20048;-78
2022/12/04 08:23:32;;;;;;;43.92;20.70;;;1.90;99.90;;;;;;5101835;28;20146;-86
2022/12/04 08:26:22;;;;;;;48.28;22.73;;;1.90;99.90;;;;;;5092814;28;20048;-81
2022/12/04 08:29:08;;;;;;;46.92;23.38;;;1.90;99.90;;;;;;5090678;28;20405;-77
2022/12/04 08:31:54;;;;;;;41.20;21.48;;;2.00;99.90;;;;;;5075513;28;20044;-85
2022/12/04 08:34:41;;;;;;;51.90;21.67;;;2.00;99.90;;;;;;5090909;28;20076;-79
2022/12/04 08:37:27;;;;;;;46.10;21.55;;;2.00;99.90;;;;;;5089335;28;20140;-83
2022/12/04 08:40:14;;;;;;;42.78;21.23;;;2.10;99.90;;;;;;5093500;28;20056;-85
2022/12/04 08:43:00;;;;;;;47.28;21.75;;;2.10;99.90;;;;;;5090651;28;20101;-80
2022/12/04 08:45:57;;;;;;;46.38;21.92;;;2.10;99.90;;;;;;5089170;28;20055;-85
2022/12/04 08:48:44;;;;;;;44.63;21.90;;;2.10;99.90;;;;;;5090026;28;20051;-83
2022/12/04 08:51:33;;;;;;;43.88;21.35;;;2.10;99.90;;;;;;5090572;28;20051;-78
2022/12/04 08:54:19;;;;;;;44.80;22.52;;;2.10;99.90;;;;;;5071810;28;20048;-86
2022/12/04 08:57:06;;;;;;;41.92;21.27;;;2.10;99.90;;;;;;5092067;28;20044;-78
2022/12/04 08:59:52;;;;;;;40.97;19.65;;;2.10;99.90;;;;;;5089992;28;20048;-81
2022/12/04 09:02:38;;;;;;;40.53;19.65;;;2.20;99.90;;;;;;5059083;28;20059;-87
2022/12/04 09:05:24;;;;;;;46.10;20.85;;;2.20;99.90;;;;;;5089445;28;20055;-78
2022/12/04 09:08:12;;;;;;;45.80;21.80;;;2.20;99.90;;;;;;5089875;28;20139;-87
2022/12/04 09:11:11;;;;;;;35.15;18.70;;;2.20;99.90;;;;;;5074003;28;20079;-82
2022/12/04 09:13:57;;;;;;;36.35;18.80;;;2.20;99.90;;;;;;5071572;28;20055;-80
2022/12/04 09:16:44;;;;;;;40.83;19.25;;;2.20;99.90;;;;;;5058535;28;20105;-84
2022/12/04 09:19:31;;;;;;;39.13;19.08;;;2.20;99.90;;;;;;5089791;28;20044;-87
2022/12/04 09:22:17;;;;;;;40.88;20.13;;;2.30;99.90;;;;;;5088993;28;20087;-85
2022/12/04 09:25:04;;;;;;;36.78;18.83;;;2.20;99.90;;;;;;5051675;28;20059;-82
2022/12/04 09:27:50;;;;;;;42.78;19.23;;;2.30;99.90;;;;;;5074542;28;20093;-80
2022/12/04 09:30:36;;;;;;;38.47;19.38;;;2.30;99.90;;;;;;5075716;28;20073;-82
2022/12/04 09:33:22;;;;;;;37.13;19.65;;;2.30;99.90;;;;;;5073025;28;20074;-86
2022/12/04 09:36:14;;;;;;;35.67;18.73;;;2.30;99.90;;;;;;5056514;28;20084;-83
2022/12/04 09:39:01;;;;;;;36.60;18.05;;;2.30;99.90;;;;;;5073792;28;20048;-81
2022/12/04 09:42:18;;;;;;;35.20;17.83;;;2.30;99.90;;;;;;5073141;28;20048;-81
2022/12/04 09:45:12;;;;;;;40.30;19.70;;;2.40;99.90;;;;;;5058615;28;20488;-81
2022/12/04 09:48:00;;;;;;;34.20;17.65;;;2.40;99.90;;;;;;5055532;28;20056;-80
2022/12/04 09:50:47;;;;;;;35.95;18.02;;;2.40;99.90;;;;;;5074561;28;20054;-83
2022/12/04 09:54:06;;;;;;;34.60;16.92;;;2.50;99.90;;;;;;5056764;28;20048;-78
2022/12/04 09:56:59;;;;;;;34.25;16.23;;;2.50;99.90;;;;;;5073934;28;20055;-86
2022/12/04 09:59:45;;;;;;;28.63;14.15;;;2.50;99.90;;;;;;5060712;28;20044;-79
2022/12/04 10:02:40;;;;;;;24.58;13.20;;;2.60;99.90;;;;;;5072306;28;20056;-78
2022/12/04 10:05:48;;;;;;;29.45;15.10;;;2.60;99.90;;;;;;5073745;28;20059;-84
2022/12/04 10:08:40;;;;;;;30.85;15.35;;;2.60;99.90;;;;;;5057649;28;20074;-78
2022/12/04 10:11:27;;;;;;;30.65;15.18;;;2.60;99.90;;;;;;5073393;28;20088;-84
2022/12/04 10:14:34;;;;;;;30.98;15.43;;;2.70;99.90;;;;;;5075818;28;20500;-83
2022/12/04 10:17:32;;;;;;;39.25;17.92;;;2.70;99.90;;;;;;5053722;28;20391;-83
2022/12/04 10:20:24;;;;;;;37.17;18.08;;;2.70;99.90;;;;;;5072326;28;20053;-81
2022/12/04 10:23:18;;;;;;;37.50;19.42;;;2.80;99.90;;;;;;5079292;28;20056;-83
2022/12/04 10:26:13;;;;;;;37.60;20.20;;;2.80;99.90;;;;;;5074468;28;20052;-82
2022/12/04 10:29:04;;;;;;;34.63;18.50;;;2.80;99.90;;;;;;5093306;28;20143;-81
2022/12/04 10:31:54;;;;;;;39.72;18.27;;;2.80;99.90;;;;;;5096393;28;20052;-83
2022/12/04 10:34:41;;;;;;;36.13;18.27;;;2.90;99.90;;;;;;5073627;28;20055;-80
2022/12/04 10:37:27;;;;;;;37.63;18.17;;;2.90;99.90;;;;;;5059671;28;20083;-79
2022/12/04 10:40:21;;;;;;;31.38;16.08;;;2.90;99.90;;;;;;5090931;28;20117;-83
2022/12/04 10:43:21;;;;;;;33.90;16.25;;;2.90;99.90;;;;;;5093079;28;20091;-82
2022/12/04 10:46:22;;;;;;;32.42;16.08;;;2.90;99.90;;;;;;5074469;28;20377;-84
2022/12/04 10:49:38;;;;;;;32.65;17.38;;;2.90;99.90;;;;;;5079249;28;20560;-86
2022/12/04 10:52:24;;;;;;;33.50;18.35;;;2.90;99.90;;;;;;5071662;28;20454;-83
2022/12/04 10:55:12;;;;;;;34.15;16.73;;;2.90;99.90;;;;;;5058953;28;20040;-86
2022/12/04 10:57:58;;;;;;;30.45;15.40;;;3.00;99.90;;;;;;5060390;28;20501;-86
2022/12/04 11:01:01;;;;;;;32.72;17.00;;;3.00;99.90;;;;;;5077085;28;20086;-86
2022/12/04 11:04:17;;;;;;;28.77;14.60;;;3.00;99.90;;;;;;5076892;28;20074;-84
2022/12/04 11:07:14;;;;;;;27.92;14.18;;;3.00;99.90;;;;;;5077007;28;20557;-83
2022/12/04 11:10:19;;;;;;;27.55;14.15;;;3.00;99.90;;;;;;5072522;28;20051;-82
2022/12/04 11:13:17;;;;;;;29.52;14.32;;;3.10;99.90;;;;;;5091386;28;20060;-84
2022/12/04 11:16:05;;;;;;;31.08;15.18;;;3.10;99.90;;;;;;5073869;28;20117;-80
2022/12/04 11:18:51;;;;;;;28.20;15.05;;;3.10;99.90;;;;;;5072105;28;20051;-79
2022/12/04 11:21:37;;;;;;;27.35;13.68;;;3.10;99.90;;;;;;5076648;28;20044;-82
2022/12/04 11:24:23;;;;;;;24.15;12.27;;;3.10;99.90;;;;;;5091087;28;20529;-86
2022/12/04 11:27:26;;;;;;;23.75;13.13;;;3.10;99.90;;;;;;5092225;28;20048;-81
2022/12/04 11:30:17;;;;;;;26.83;14.02;;;3.10;99.90;;;;;;5075102;28;20094;-79
2022/12/04 11:33:07;;;;;;;22.02;11.32;;;3.20;99.90;;;;;;5094153;28;20083;-83
2022/12/04 11:35:55;;;;;;;23.58;11.27;;;3.10;99.90;;;;;;5091948;28;20533;-80
2022/12/04 11:38:42;;;;;;;22.63;12.05;;;3.20;99.90;;;;;;5080176;28;20635;-85
2022/12/04 11:41:30;;;;;;;21.95;10.80;;;3.20;99.90;;;;;;5078021;28;20052;-83
2022/12/04 11:44:25;;;;;;;21.25;11.85;;;3.10;99.90;;;;;;5082085;28;20526;-80
2022/12/04 11:47:17;;;;;;;22.00;10.98;;;3.20;99.90;;;;;;5077386;28;20411;-84
2022/12/04 11:50:10;;;;;;;22.08;11.65;;;3.20;99.90;;;;;;5075155;28;20086;-81
2022/12/04 11:53:11;;;;;;;21.23;11.02;;;3.20;99.90;;;;;;5095381;28;20518;-81
2022/12/04 11:56:30;;;;;;;19.40;10.70;;;3.20;99.90;;;;;;5093258;28;20052;-80
2022/12/04 11:59:42;;;;;;;21.13;10.93;;;3.30;99.90;;;;;;5073860;28;20377;-80
2022/12/04 12:02:37;;;;;;;21.73;11.50;;;3.20;99.90;;;;;;5072944;28;20466;-82
2022/12/04 12:05:41;;;;;;;19.42;11.15;;;3.20;99.90;;;;;;5092170;28;20121;-81
2022/12/04 12:08:36;;;;;;;18.20;10.68;;;3.20;99.90;;;;;;5077104;28;20484;-86
2022/12/04 12:11:37;;;;;;;21.83;10.10;;;3.20;99.90;;;;;;5073015;28;20059;-81
2022/12/04 12:15:03;;;;;;;20.35;10.23;;;3.20;99.90;;;;;;5090233;28;20071;-79
2022/12/04 12:18:09;;;;;;;18.88;10.68;;;3.20;99.90;;;;;;5087663;28;20040;-85
2022/12/04 12:21:09;;;;;;;18.90;10.45;;;3.10;99.90;;;;;;5091962;28;20044;-77
2022/12/04 12:24:22;;;;;;;19.38;10.52;;;3.20;99.90;;;;;;5080639;28;20393;-82
2022/12/04 12:27:30;;;;;;;18.92;9.90;;;3.20;99.90;;;;;;5052834;28;20052;-84
2022/12/04 12:30:21;;;;;;;18.65;9.57;;;3.30;99.90;;;;;;5071415;28;20071;-84
2022/12/04 12:33:18;;;;;;;16.98;9.38;;;3.20;99.90;;;;;;5072078;28;20067;-81
2022/12/04 12:36:10;;;;;;;18.50;8.90;;;3.20;99.90;;;;;;5069763;28;20041;-79
2022/12/04 12:39:23;;;;;;;18.88;9.68;;;3.30;99.90;;;;;;5038681;28;20060;-83
2022/12/04 12:42:17;;;;;;;20.80;9.55;;;3.20;99.90;;;;;;5056860;28;20040;-82
2022/12/04 12:45:07;;;;;;;19.10;9.40;;;3.30;99.90;;;;;;5053469;28;20052;-84
2022/12/04 12:47:58;;;;;;;19.17;9.75;;;3.30;99.90;;;;;;5052191;28;20055;-82
2022/12/04 12:50:49;;;;;;;21.27;10.70;;;3.30;99.90;;;;;;5070140;28;20075;-80
2022/12/04 12:53:41;;;;;;;25.10;11.63;;;3.30;99.90;;;;;;5052439;28;20060;-80
2022/12/04 12:56:38;;;;;;;22.90;12.10;;;3.30;99.90;;;;;;5070465;28;20055;-76
2022/12/04 12:59:26;;;;;;;25.35;12.70;;;3.30;99.90;;;;;;5053047;28;20055;-85
2022/12/04 13:02:21;;;;;;;27.35;13.73;;;3.30;99.90;;;;;;5074193;28;20087;-84
2022/12/04 13:05:12;;;;;;;26.35;14.35;;;3.30;99.90;;;;;;5074203;28;20054;-79
2022/12/04 13:08:14;;;;;;;24.35;11.57;;;3.30;99.90;;;;;;5056408;28;20048;-78
2022/12/04 13:11:22;;;;;;;26.23;13.68;;;3.30;99.90;;;;;;5060190;28;20036;-82
2022/12/04 13:14:12;;;;;;;28.02;13.73;;;3.40;99.90;;;;;;5057252;28;20056;-83
2022/12/04 13:17:10;;;;;;;23.70;11.82;;;3.40;99.90;;;;;;5074637;28;20066;-81
2022/12/04 13:20:01;;;;;;;22.83;11.68;;;3.40;99.90;;;;;;5044834;28;20061;-80
2022/12/04 13:22:57;;;;;;;24.08;12.85;;;3.40;99.90;;;;;;5055733;28;20060;-86
2022/12/04 13:25:53;;;;;;;28.17;12.35;;;3.50;99.90;;;;;;5092825;28;20044;-81
2022/12/04 13:28:56;;;;;;;22.95;11.75;;;3.50;99.90;;;;;;5076650;28;20040;-82
2022/12/04 13:32:15;;;;;;;26.98;13.45;;;3.50;99.90;;;;;;5062074;28;20463;-82
2022/12/04 13:35:13;;;;;;;27.98;13.13;;;3.50;99.90;;;;;;5077628;28;20185;-82
2022/12/04 13:38:29;;;;;;;28.70;13.20;;;3.50;99.90;;;;;;5075404;28;20051;-81
2022/12/04 13:41:19;;;;;;;26.33;13.77;;;3.60;99.90;;;;;;5074782;28;20048;-84
2022/12/04 13:44:24;;;;;;;28.55;14.95;;;3.60;99.90;;;;;;5059780;28;20048;-86
2022/12/04 13:47:23;;;;;;;29.60;14.55;;;3.60;99.90;;;;;;5092524;28;20036;-82
2022/12/04 13:50:18;;;;;;;34.22;14.60;;;3.60;99.90;;;;;;5092138;28;20044;-79
2022/12/04 13:53:25;;;;;;;33.80;16.25;;;3.70;99.90;;;;;;5079739;28;20391;-78
2022/12/04 13:56:27;;;;;;;30.63;15.18;;;3.70;99.90;;;;;;5093421;28;20063;-84
2022/12/04 13:59:28;;;;;;;32.92;14.98;;;3.70;99.90;;;;;;5093203;28;20052;-78
2022/12/04 14:02:28;;;;;;;33.83;14.98;;;3.70;99.90;;;;;;5073323;28;20377;-82
2022/12/04 14:05:14;;;;;;;25.40;14.18;;;3.70;99.90;;;;;;5092189;28;20048;-80
2022/12/04 14:08:03;;;;;;;25.73;12.98;;;3.70;99.90;;;;;;5074497;28;20081;-86
2022/12/04 14:11:03;;;;;;;29.58;15.13;;;3.80;99.90;;;;;;5076087;28;20048;-86
2022/12/04 14:13:55;;;;;;;29.70;14.70;;;3.80;99.90;;;;;;5078756;28;20051;-81
2022/12/04 14:16:42;;;;;;;23.08;12.82;;;3.80;99.90;;;;;;5073782;28;20044;-78
2022/12/04 14:19:35;;;;;;;25.35;13.38;;;3.80;99.90;;;;;;5092413;28;20052;-83
2022/12/04 14:22:27;;;;;;;28.38;13.65;;;3.80;99.90;;;;;;5093081;28;20612;-87
2022/12/04 14:25:13;;;;;;;26.58;12.75;;;3.80;99.90;;;;;;5080089;28;20051;-84
2022/12/04 14:28:18;;;;;;;25.15;13.57;;;3.80;99.90;;;;;;5092879;28;20230;-80
2022/12/04 14:31:16;;;;;;;29.08;14.02;;;3.80;99.90;;;;;;5094569;28;20102;-85
2022/12/04 14:34:25;;;;;;;25.65;13.05;;;3.80;99.90;;;;;;5077836;28;20044;-84
2022/12/04 14:37:24;;;;;;;26.58;13.80;;;3.80;99.90;;;;;;5093294;28;20104;-82
2022/12/04 14:40:22;;;;;;;26.02;13.48;;;3.70;99.90;;;;;;5097641;28;20510;-81
2022/12/04 14:43:23;;;;;;;25.77;14.50;;;3.70;99.90;;;;;;5097446;28;20541;-81
2022/12/04 14:46:26;;;;;;;27.05;14.38;;;3.70;99.90;;;;;;5095208;28;20070;-80
2022/12/04 14:49:49;;;;;;;27.27;12.57;;;3.70;99.90;;;;;;5094631;28;20145;-80
2022/12/04 14:52:47;;;;;;;25.52;13.30;;;3.70;99.90;;;;;;5091454;28;20070;-81
2022/12/04 14:55:36;;;;;;;21.90;12.07;;;3.70;99.90;;;;;;5078077;28;20075;-86